sensor_id;sensor_type;location;lat;lon;timestamp;P1;durP1;ratioP1;P2;durP2;ratioP2
66739;SDS011;53653;52.188;8.602;2023-02-28T00:00:34;31.50;;;16.45;;
66739;SDS011;53653;52.188;8.602;2023-02-28T00:03:00;32.08;;;16.67;;
66739;SDS011;53653;52.188;8.602;2023-02-28T00:05:26;36.47;;;16.47;;
66739;SDS011;53653;52.188;8.602;2023-02-28T00:07:53;32.55;;;16.08;;
66739;SDS011;53653;52.188;8.602;2023-02-28T00:10:25;31.77;;;14.50;;
66739;SDS011;53653;52.188;8.602;2023-02-28T00:12:56;25.13;;;13.85;;
66739;SDS011;53653;52.188;8.602;2023-02-28T00:15:25;27.67;;;13.83;;
66739;SDS011;53653;52.188;8.602;2023-02-28T00:17:51;27.38;;;14.70;;
66739;SDS011;53653;52.188;8.602;2023-02-28T00:20:20;30.85;;;14.15;;
66739;SDS011;53653;52.188;8.602;2023-02-28T00:22:47;31.52;;;15.82;;
66739;SDS011;53653;52.188;8.602;2023-02-28T00:25:16;27.00;;;13.82;;
66739;SDS011;53653;52.188;8.602;2023-02-28T00:27:44;35.27;;;15.27;;
66739;SDS011;53653;52.188;8.602;2023-02-28T00:30:11;34.47;;;14.88;;
66739;SDS011;53653;52.188;8.602;2023-02-28T00:32:39;34.92;;;16.17;;
66739;SDS011;53653;52.188;8.602;2023-02-28T00:35:05;34.60;;;15.73;;
66739;SDS011;53653;52.188;8.602;2023-02-28T00:37:32;25.93;;;11.67;;
66739;SDS011;53653;52.188;8.602;2023-02-28T00:39:58;25.13;;;12.15;;
66739;SDS011;53653;52.188;8.602;2023-02-28T00:42:24;28.70;;;12.37;;
66739;SDS011;53653;52.188;8.602;2023-02-28T00:44:49;26.45;;;11.90;;
66739;SDS011;53653;52.188;8.602;2023-02-28T00:47:15;23.47;;;11.37;;
66739;SDS011;53653;52.188;8.602;2023-02-28T00:49:42;26.40;;;12.63;;
66739;SDS011;53653;52.188;8.602;2023-02-28T00:52:08;27.42;;;12.90;;
66739;SDS011;53653;52.188;8.602;2023-02-28T00:54:34;24.90;;;11.35;;
66739;SDS011;53653;52.188;8.602;2023-02-28T00:56:59;30.30;;;12.93;;
66739;SDS011;53653;52.188;8.602;2023-02-28T00:59:25;23.90;;;10.85;;
66739;SDS011;53653;52.188;8.602;2023-02-28T01:01:51;22.90;;;10.70;;
66739;SDS011;53653;52.188;8.602;2023-02-28T01:04:16;18.57;;;9.03;;
66739;SDS011;53653;52.188;8.602;2023-02-28T01:06:42;23.15;;;9.88;;
66739;SDS011;53653;52.188;8.602;2023-02-28T01:09:09;16.98;;;9.27;;
66739;SDS011;53653;52.188;8.602;2023-02-28T01:11:35;23.95;;;9.68;;
66739;SDS011;53653;52.188;8.602;2023-02-28T01:14:01;20.20;;;9.07;;
66739;SDS011;53653;52.188;8.602;2023-02-28T01:16:27;18.70;;;8.80;;
66739;SDS011;53653;52.188;8.602;2023-02-28T01:18:53;17.10;;;8.77;;
66739;SDS011;53653;52.188;8.602;2023-02-28T01:21:20;21.52;;;10.57;;
66739;SDS011;53653;52.188;8.602;2023-02-28T01:23:46;25.63;;;11.40;;
66739;SDS011;53653;52.188;8.602;2023-02-28T01:26:14;27.67;;;12.30;;
66739;SDS011;53653;52.188;8.602;2023-02-28T01:28:47;24.13;;;12.50;;
66739;SDS011;53653;52.188;8.602;2023-02-28T01:31:14;29.60;;;12.57;;
66739;SDS011;53653;52.188;8.602;2023-02-28T01:33:40;26.67;;;12.05;;
66739;SDS011;53653;52.188;8.602;2023-02-28T01:36:08;28.23;;;12.90;;
66739;SDS011;53653;52.188;8.602;2023-02-28T01:38:42;33.33;;;14.10;;
66739;SDS011;53653;52.188;8.602;2023-02-28T01:41:08;34.30;;;15.15;;
66739;SDS011;53653;52.188;8.602;2023-02-28T01:46:14;37.13;;;16.73;;
66739;SDS011;53653;52.188;8.602;2023-02-28T01:48:45;38.75;;;16.83;;
66739;SDS011;53653;52.188;8.602;2023-02-28T01:51:17;40.92;;;15.88;;
66739;SDS011;53653;52.188;8.602;2023-02-28T01:53:47;39.60;;;15.05;;
66739;SDS011;53653;52.188;8.602;2023-02-28T01:56:19;33.93;;;14.80;;
66739;SDS011;53653;52.188;8.602;2023-02-28T01:58:49;31.52;;;13.88;;
66739;SDS011;53653;52.188;8.602;2023-02-28T02:01:17;32.75;;;13.98;;
66739;SDS011;53653;52.188;8.602;2023-02-28T02:03:51;30.70;;;13.40;;
66739;SDS011;53653;52.188;8.602;2023-02-28T02:06:24;26.58;;;11.77;;
66739;SDS011;53653;52.188;8.602;2023-02-28T02:08:53;21.43;;;11.03;;
66739;SDS011;53653;52.188;8.602;2023-02-28T02:11:19;23.35;;;11.45;;
66739;SDS011;53653;52.188;8.602;2023-02-28T02:16:28;32.07;;;13.37;;
66739;SDS011;53653;52.188;8.602;2023-02-28T02:25:32;29.65;;;13.50;;
66739;SDS011;53653;52.188;8.602;2023-02-28T02:28:10;28.38;;;14.00;;
66739;SDS011;53653;52.188;8.602;2023-02-28T02:34:00;25.92;;;11.07;;
66739;SDS011;53653;52.188;8.602;2023-02-28T02:42:01;26.85;;;12.43;;
66739;SDS011;53653;52.188;8.602;2023-02-28T02:44:39;27.43;;;11.73;;
66739;SDS011;53653;52.188;8.602;2023-02-28T02:47:12;25.23;;;11.98;;
66739;SDS011;53653;52.188;8.602;2023-02-28T02:49:42;28.13;;;12.13;;
66739;SDS011;53653;52.188;8.602;2023-02-28T02:52:15;26.30;;;11.82;;
66739;SDS011;53653;52.188;8.602;2023-02-28T02:54:44;27.10;;;13.10;;
66739;SDS011;53653;52.188;8.602;2023-02-28T02:57:17;24.97;;;11.63;;
66739;SDS011;53653;52.188;8.602;2023-02-28T02:59:46;29.75;;;12.45;;
66739;SDS011;53653;52.188;8.602;2023-02-28T03:02:15;24.92;;;12.60;;
66739;SDS011;53653;52.188;8.602;2023-02-28T03:04:43;28.60;;;12.27;;
66739;SDS011;53653;52.188;8.602;2023-02-28T03:07:13;23.55;;;12.73;;
66739;SDS011;53653;52.188;8.602;2023-02-28T03:09:39;25.80;;;11.87;;
66739;SDS011;53653;52.188;8.602;2023-02-28T03:12:07;26.45;;;12.88;;
66739;SDS011;53653;52.188;8.602;2023-02-28T03:17:38;26.48;;;11.98;;
66739;SDS011;53653;52.188;8.602;2023-02-28T03:20:24;26.20;;;11.75;;
66739;SDS011;53653;52.188;8.602;2023-02-28T03:28:31;28.00;;;13.15;;
66739;SDS011;53653;52.188;8.602;2023-02-28T03:33:46;28.98;;;13.45;;
66739;SDS011;53653;52.188;8.602;2023-02-28T03:36:21;29.17;;;12.73;;
66739;SDS011;53653;52.188;8.602;2023-02-28T03:38:51;32.28;;;12.70;;
66739;SDS011;53653;52.188;8.602;2023-02-28T03:41:25;26.17;;;12.18;;
66739;SDS011;53653;52.188;8.602;2023-02-28T03:44:19;26.45;;;11.85;;
66739;SDS011;53653;52.188;8.602;2023-02-28T03:47:24;28.77;;;12.10;;
66739;SDS011;53653;52.188;8.602;2023-02-28T03:52:31;27.13;;;12.35;;
66739;SDS011;53653;52.188;8.602;2023-02-28T03:55:01;23.85;;;11.30;;
66739;SDS011;53653;52.188;8.602;2023-02-28T03:57:34;26.60;;;11.50;;
66739;SDS011;53653;52.188;8.602;2023-02-28T04:00:12;26.33;;;12.07;;
66739;SDS011;53653;52.188;8.602;2023-02-28T04:02:44;25.30;;;11.77;;
66739;SDS011;53653;52.188;8.602;2023-02-28T04:05:10;23.25;;;12.20;;
66739;SDS011;53653;52.188;8.602;2023-02-28T04:07:36;21.95;;;10.63;;
66739;SDS011;53653;52.188;8.602;2023-02-28T04:10:03;21.10;;;10.47;;
66739;SDS011;53653;52.188;8.602;2023-02-28T04:12:29;24.10;;;10.25;;
66739;SDS011;53653;52.188;8.602;2023-02-28T04:14:54;23.45;;;11.40;;
66739;SDS011;53653;52.188;8.602;2023-02-28T04:17:20;24.03;;;10.37;;
66739;SDS011;53653;52.188;8.602;2023-02-28T04:19:45;21.70;;;10.67;;
66739;SDS011;53653;52.188;8.602;2023-02-28T04:22:11;24.30;;;10.40;;
66739;SDS011;53653;52.188;8.602;2023-02-28T04:24:36;22.83;;;9.48;;
66739;SDS011;53653;52.188;8.602;2023-02-28T04:27:02;20.93;;;9.73;;
66739;SDS011;53653;52.188;8.602;2023-02-28T04:29:29;20.05;;;10.10;;
66739;SDS011;53653;52.188;8.602;2023-02-28T04:32:00;21.40;;;10.32;;
66739;SDS011;53653;52.188;8.602;2023-02-28T04:34:27;22.80;;;10.30;;
66739;SDS011;53653;52.188;8.602;2023-02-28T04:36:54;22.60;;;11.00;;
66739;SDS011;53653;52.188;8.602;2023-02-28T04:39:21;20.35;;;10.25;;
66739;SDS011;53653;52.188;8.602;2023-02-28T04:41:47;22.92;;;10.02;;
66739;SDS011;53653;52.188;8.602;2023-02-28T04:44:13;21.17;;;10.70;;
66739;SDS011;53653;52.188;8.602;2023-02-28T04:46:39;17.30;;;9.07;;
66739;SDS011;53653;52.188;8.602;2023-02-28T04:49:05;21.80;;;9.65;;
66739;SDS011;53653;52.188;8.602;2023-02-28T04:51:31;20.70;;;10.97;;
66739;SDS011;53653;52.188;8.602;2023-02-28T04:53:56;23.13;;;10.80;;
66739;SDS011;53653;52.188;8.602;2023-02-28T04:56:22;24.58;;;11.13;;
66739;SDS011;53653;52.188;8.602;2023-02-28T04:58:48;21.58;;;10.63;;
66739;SDS011;53653;52.188;8.602;2023-02-28T05:01:19;21.93;;;10.67;;
66739;SDS011;53653;52.188;8.602;2023-02-28T05:03:48;24.55;;;10.02;;
66739;SDS011;53653;52.188;8.602;2023-02-28T05:06:14;24.35;;;9.90;;
66739;SDS011;53653;52.188;8.602;2023-02-28T05:08:40;22.60;;;10.30;;
66739;SDS011;53653;52.188;8.602;2023-02-28T05:11:06;19.03;;;9.27;;
66739;SDS011;53653;52.188;8.602;2023-02-28T05:13:38;21.60;;;9.57;;
66739;SDS011;53653;52.188;8.602;2023-02-28T05:16:04;19.83;;;9.67;;
66739;SDS011;53653;52.188;8.602;2023-02-28T05:18:29;25.30;;;10.10;;
66739;SDS011;53653;52.188;8.602;2023-02-28T05:20:55;22.47;;;10.97;;
66739;SDS011;53653;52.188;8.602;2023-02-28T05:23:20;23.77;;;11.23;;
66739;SDS011;53653;52.188;8.602;2023-02-28T05:25:47;24.50;;;11.35;;
66739;SDS011;53653;52.188;8.602;2023-02-28T05:28:13;20.17;;;9.77;;
66739;SDS011;53653;52.188;8.602;2023-02-28T05:30:39;22.35;;;10.50;;
66739;SDS011;53653;52.188;8.602;2023-02-28T05:33:04;28.45;;;10.93;;
66739;SDS011;53653;52.188;8.602;2023-02-28T05:35:30;23.30;;;11.43;;
66739;SDS011;53653;52.188;8.602;2023-02-28T05:37:55;24.63;;;10.33;;
66739;SDS011;53653;52.188;8.602;2023-02-28T05:40:21;19.00;;;10.17;;
66739;SDS011;53653;52.188;8.602;2023-02-28T05:42:46;28.77;;;12.97;;
66739;SDS011;53653;52.188;8.602;2023-02-28T05:45:12;22.42;;;11.63;;
66739;SDS011;53653;52.188;8.602;2023-02-28T05:47:38;19.33;;;9.82;;
66739;SDS011;53653;52.188;8.602;2023-02-28T05:50:04;21.53;;;10.53;;
66739;SDS011;53653;52.188;8.602;2023-02-28T05:52:30;18.95;;;9.60;;
66739;SDS011;53653;52.188;8.602;2023-02-28T05:54:56;22.03;;;10.47;;
66739;SDS011;53653;52.188;8.602;2023-02-28T05:57:21;19.58;;;9.40;;
66739;SDS011;53653;52.188;8.602;2023-02-28T05:59:48;22.67;;;9.98;;
66739;SDS011;53653;52.188;8.602;2023-02-28T06:02:14;21.23;;;10.20;;
66739;SDS011;53653;52.188;8.602;2023-02-28T06:04:41;16.52;;;8.82;;
66739;SDS011;53653;52.188;8.602;2023-02-28T06:07:08;19.67;;;9.37;;
66739;SDS011;53653;52.188;8.602;2023-02-28T06:09:34;20.83;;;9.63;;
66739;SDS011;53653;52.188;8.602;2023-02-28T06:12:01;19.70;;;9.98;;
66739;SDS011;53653;52.188;8.602;2023-02-28T06:14:31;24.80;;;11.15;;
66739;SDS011;53653;52.188;8.602;2023-02-28T06:16:58;23.73;;;11.35;;
66739;SDS011;53653;52.188;8.602;2023-02-28T06:19:23;28.80;;;10.63;;
66739;SDS011;53653;52.188;8.602;2023-02-28T06:21:53;24.95;;;10.18;;
66739;SDS011;53653;52.188;8.602;2023-02-28T06:24:20;26.02;;;11.90;;
66739;SDS011;53653;52.188;8.602;2023-02-28T06:26:45;20.55;;;10.25;;
66739;SDS011;53653;52.188;8.602;2023-02-28T06:29:11;22.27;;;10.13;;
66739;SDS011;53653;52.188;8.602;2023-02-28T06:31:37;21.85;;;10.02;;
66739;SDS011;53653;52.188;8.602;2023-02-28T06:34:03;21.43;;;10.27;;
66739;SDS011;53653;52.188;8.602;2023-02-28T06:36:30;22.70;;;10.77;;
66739;SDS011;53653;52.188;8.602;2023-02-28T06:38:55;21.77;;;11.55;;
66739;SDS011;53653;52.188;8.602;2023-02-28T06:41:22;22.37;;;10.47;;
66739;SDS011;53653;52.188;8.602;2023-02-28T06:43:51;21.15;;;10.38;;
66739;SDS011;53653;52.188;8.602;2023-02-28T06:46:17;22.40;;;9.82;;
66739;SDS011;53653;52.188;8.602;2023-02-28T06:55:33;22.30;;;10.80;;
66739;SDS011;53653;52.188;8.602;2023-02-28T06:57:59;24.40;;;10.70;;
66739;SDS011;53653;52.188;8.602;2023-02-28T07:00:25;29.38;;;10.98;;
66739;SDS011;53653;52.188;8.602;2023-02-28T07:02:50;27.37;;;11.40;;
66739;SDS011;53653;52.188;8.602;2023-02-28T07:05:16;27.98;;;11.35;;
66739;SDS011;53653;52.188;8.602;2023-02-28T07:07:41;28.10;;;11.30;;
66739;SDS011;53653;52.188;8.602;2023-02-28T07:10:12;26.52;;;11.50;;
66739;SDS011;53653;52.188;8.602;2023-02-28T07:12:40;23.25;;;11.25;;
66739;SDS011;53653;52.188;8.602;2023-02-28T07:15:06;24.43;;;10.53;;
66739;SDS011;53653;52.188;8.602;2023-02-28T07:17:32;18.90;;;9.32;;
66739;SDS011;53653;52.188;8.602;2023-02-28T07:19:58;22.00;;;10.00;;
66739;SDS011;53653;52.188;8.602;2023-02-28T07:22:23;21.97;;;9.40;;
66739;SDS011;53653;52.188;8.602;2023-02-28T07:24:50;21.35;;;9.15;;
66739;SDS011;53653;52.188;8.602;2023-02-28T07:27:15;20.00;;;9.27;;
66739;SDS011;53653;52.188;8.602;2023-02-28T07:29:49;18.67;;;9.50;;
66739;SDS011;53653;52.188;8.602;2023-02-28T07:32:15;20.33;;;9.85;;
66739;SDS011;53653;52.188;8.602;2023-02-28T07:34:40;18.23;;;9.48;;
66739;SDS011;53653;52.188;8.602;2023-02-28T07:37:06;17.53;;;9.77;;
66739;SDS011;53653;52.188;8.602;2023-02-28T07:39:31;20.80;;;9.43;;
66739;SDS011;53653;52.188;8.602;2023-02-28T07:41:57;20.25;;;8.88;;
66739;SDS011;53653;52.188;8.602;2023-02-28T07:44:25;18.77;;;9.10;;
66739;SDS011;53653;52.188;8.602;2023-02-28T07:46:51;22.77;;;9.48;;
66739;SDS011;53653;52.188;8.602;2023-02-28T07:49:17;21.70;;;10.23;;
66739;SDS011;53653;52.188;8.602;2023-02-28T07:51:43;23.47;;;10.33;;
66739;SDS011;53653;52.188;8.602;2023-02-28T07:54:08;19.92;;;10.05;;
66739;SDS011;53653;52.188;8.602;2023-02-28T07:56:34;22.80;;;10.90;;
66739;SDS011;53653;52.188;8.602;2023-02-28T07:58:59;24.83;;;12.00;;
66739;SDS011;53653;52.188;8.602;2023-02-28T08:01:26;22.42;;;10.88;;
66739;SDS011;53653;52.188;8.602;2023-02-28T08:03:52;21.10;;;10.33;;
66739;SDS011;53653;52.188;8.602;2023-02-28T08:06:21;21.80;;;10.10;;
66739;SDS011;53653;52.188;8.602;2023-02-28T08:08:49;24.83;;;11.10;;
66739;SDS011;53653;52.188;8.602;2023-02-28T08:11:16;21.83;;;11.27;;
66739;SDS011;53653;52.188;8.602;2023-02-28T08:13:42;24.15;;;11.35;;
66739;SDS011;53653;52.188;8.602;2023-02-28T08:16:09;19.00;;;9.40;;
66739;SDS011;53653;52.188;8.602;2023-02-28T08:18:35;17.85;;;8.43;;
66739;SDS011;53653;52.188;8.602;2023-02-28T08:21:08;18.80;;;9.02;;
66739;SDS011;53653;52.188;8.602;2023-02-28T08:23:34;16.33;;;7.53;;
66739;SDS011;53653;52.188;8.602;2023-02-28T08:26:00;22.88;;;8.52;;
66739;SDS011;53653;52.188;8.602;2023-02-28T08:28:26;15.95;;;7.15;;
66739;SDS011;53653;52.188;8.602;2023-02-28T08:30:52;15.00;;;6.50;;
66739;SDS011;53653;52.188;8.602;2023-02-28T08:33:17;16.10;;;6.77;;
66739;SDS011;53653;52.188;8.602;2023-02-28T08:35:42;12.45;;;6.20;;
66739;SDS011;53653;52.188;8.602;2023-02-28T08:38:08;7.47;;;2.67;;
66739;SDS011;53653;52.188;8.602;2023-02-28T08:40:33;14.10;;;5.07;;
66739;SDS011;53653;52.188;8.602;2023-02-28T08:42:59;14.53;;;6.37;;
66739;SDS011;53653;52.188;8.602;2023-02-28T08:45:25;12.32;;;4.35;;
66739;SDS011;53653;52.188;8.602;2023-02-28T08:47:51;12.90;;;6.43;;
66739;SDS011;53653;52.188;8.602;2023-02-28T08:50:17;11.77;;;6.75;;
66739;SDS011;53653;52.188;8.602;2023-02-28T08:52:43;13.40;;;6.67;;
66739;SDS011;53653;52.188;8.602;2023-02-28T08:55:09;17.70;;;7.18;;
66739;SDS011;53653;52.188;8.602;2023-02-28T08:57:35;16.58;;;6.80;;
66739;SDS011;53653;52.188;8.602;2023-02-28T09:00:01;9.63;;;3.93;;
66739;SDS011;53653;52.188;8.602;2023-02-28T09:02:30;8.98;;;4.40;;
66739;SDS011;53653;52.188;8.602;2023-02-28T09:04:57;14.43;;;4.80;;
66739;SDS011;53653;52.188;8.602;2023-02-28T09:07:23;8.90;;;4.55;;
66739;SDS011;53653;52.188;8.602;2023-02-28T09:09:49;11.43;;;3.53;;
66739;SDS011;53653;52.188;8.602;2023-02-28T09:12:24;6.85;;;2.72;;
66739;SDS011;53653;52.188;8.602;2023-02-28T09:14:51;9.93;;;3.60;;
66739;SDS011;53653;52.188;8.602;2023-02-28T09:17:17;6.57;;;2.88;;
66739;SDS011;53653;52.188;8.602;2023-02-28T09:19:43;7.50;;;2.87;;
66739;SDS011;53653;52.188;8.602;2023-02-28T09:22:09;7.88;;;3.35;;
66739;SDS011;53653;52.188;8.602;2023-02-28T09:24:36;9.23;;;2.92;;
66739;SDS011;53653;52.188;8.602;2023-02-28T09:27:03;7.75;;;3.13;;
66739;SDS011;53653;52.188;8.602;2023-02-28T09:29:29;8.03;;;3.03;;
66739;SDS011;53653;52.188;8.602;2023-02-28T09:31:55;9.48;;;2.88;;
66739;SDS011;53653;52.188;8.602;2023-02-28T09:34:24;7.10;;;3.10;;
66739;SDS011;53653;52.188;8.602;2023-02-28T09:36:50;8.60;;;2.75;;
66739;SDS011;53653;52.188;8.602;2023-02-28T09:39:20;8.05;;;3.22;;
66739;SDS011;53653;52.188;8.602;2023-02-28T09:41:47;8.03;;;2.87;;
66739;SDS011;53653;52.188;8.602;2023-02-28T09:44:18;6.50;;;2.90;;
66739;SDS011;53653;52.188;8.602;2023-02-28T09:46:51;5.20;;;2.03;;
66739;SDS011;53653;52.188;8.602;2023-02-28T09:49:25;6.38;;;2.72;;
66739;SDS011;53653;52.188;8.602;2023-02-28T09:54:28;6.67;;;3.30;;
66739;SDS011;53653;52.188;8.602;2023-02-28T09:56:58;9.93;;;3.70;;
66739;SDS011;53653;52.188;8.602;2023-02-28T10:02:17;8.45;;;2.83;;
66739;SDS011;53653;52.188;8.602;2023-02-28T10:04:54;9.05;;;3.00;;
66739;SDS011;53653;52.188;8.602;2023-02-28T10:07:32;6.17;;;2.50;;
66739;SDS011;53653;52.188;8.602;2023-02-28T10:10:02;6.22;;;2.60;;
66739;SDS011;53653;52.188;8.602;2023-02-28T10:12:33;6.07;;;2.42;;
66739;SDS011;53653;52.188;8.602;2023-02-28T10:15:03;9.13;;;2.80;;
66739;SDS011;53653;52.188;8.602;2023-02-28T10:17:35;7.95;;;2.40;;
66739;SDS011;53653;52.188;8.602;2023-02-28T10:20:05;6.70;;;2.10;;
66739;SDS011;53653;52.188;8.602;2023-02-28T10:25:32;8.25;;;2.53;;
66739;SDS011;53653;52.188;8.602;2023-02-28T10:28:10;5.57;;;2.00;;
66739;SDS011;53653;52.188;8.602;2023-02-28T10:30:38;9.27;;;3.03;;
66739;SDS011;53653;52.188;8.602;2023-02-28T10:33:23;6.43;;;2.43;;
66739;SDS011;53653;52.188;8.602;2023-02-28T10:35:54;7.25;;;2.60;;
66739;SDS011;53653;52.188;8.602;2023-02-28T10:38:21;9.90;;;2.57;;
66739;SDS011;53653;52.188;8.602;2023-02-28T10:40:51;6.90;;;3.03;;
66739;SDS011;53653;52.188;8.602;2023-02-28T10:43:29;6.93;;;3.03;;
66739;SDS011;53653;52.188;8.602;2023-02-28T10:46:02;6.53;;;2.83;;
66739;SDS011;53653;52.188;8.602;2023-02-28T10:48:44;8.65;;;2.65;;
66739;SDS011;53653;52.188;8.602;2023-02-28T10:51:16;5.97;;;2.35;;
66739;SDS011;53653;52.188;8.602;2023-02-28T10:53:50;8.27;;;2.80;;
66739;SDS011;53653;52.188;8.602;2023-02-28T10:56:19;7.85;;;2.63;;
66739;SDS011;53653;52.188;8.602;2023-02-28T11:01:16;8.23;;;3.47;;
66739;SDS011;53653;52.188;8.602;2023-02-28T11:03:44;5.95;;;2.53;;
66739;SDS011;53653;52.188;8.602;2023-02-28T11:06:15;7.75;;;3.13;;
66739;SDS011;53653;52.188;8.602;2023-02-28T11:08:45;9.27;;;3.43;;
66739;SDS011;53653;52.188;8.602;2023-02-28T11:11:12;7.75;;;3.13;;
66739;SDS011;53653;52.188;8.602;2023-02-28T11:13:38;8.00;;;3.13;;
66739;SDS011;53653;52.188;8.602;2023-02-28T11:16:05;8.90;;;3.60;;
66739;SDS011;53653;52.188;8.602;2023-02-28T11:18:43;8.40;;;3.05;;
66739;SDS011;53653;52.188;8.602;2023-02-28T11:21:18;11.77;;;3.65;;
66739;SDS011;53653;52.188;8.602;2023-02-28T11:24:00;7.65;;;3.13;;
66739;SDS011;53653;52.188;8.602;2023-02-28T11:26:35;7.18;;;2.97;;
66739;SDS011;53653;52.188;8.602;2023-02-28T11:29:08;6.07;;;2.47;;
66739;SDS011;53653;52.188;8.602;2023-02-28T11:31:39;6.43;;;2.70;;
66739;SDS011;53653;52.188;8.602;2023-02-28T11:34:21;6.47;;;2.42;;
66739;SDS011;53653;52.188;8.602;2023-02-28T11:36:49;7.35;;;2.95;;
66739;SDS011;53653;52.188;8.602;2023-02-28T11:39:18;6.60;;;2.72;;
66739;SDS011;53653;52.188;8.602;2023-02-28T11:46:53;6.28;;;2.70;;
66739;SDS011;53653;52.188;8.602;2023-02-28T11:50:10;7.65;;;2.92;;
66739;SDS011;53653;52.188;8.602;2023-02-28T11:52:40;7.28;;;3.13;;
66739;SDS011;53653;52.188;8.602;2023-02-28T11:55:52;8.20;;;2.90;;
66739;SDS011;53653;52.188;8.602;2023-02-28T12:06:28;8.00;;;2.58;;
66739;SDS011;53653;52.188;8.602;2023-02-28T12:28:53;5.43;;;1.95;;
66739;SDS011;53653;52.188;8.602;2023-02-28T12:31:24;7.93;;;2.38;;
66739;SDS011;53653;52.188;8.602;2023-02-28T12:33:56;7.13;;;2.38;;
66739;SDS011;53653;52.188;8.602;2023-02-28T12:36:26;7.50;;;2.37;;
66739;SDS011;53653;52.188;8.602;2023-02-28T12:38:55;6.55;;;2.50;;
66739;SDS011;53653;52.188;8.602;2023-02-28T12:41:26;5.32;;;2.00;;
66739;SDS011;53653;52.188;8.602;2023-02-28T12:44:01;8.32;;;2.20;;
66739;SDS011;53653;52.188;8.602;2023-02-28T12:46:30;7.15;;;2.30;;
66739;SDS011;53653;52.188;8.602;2023-02-28T12:49:00;5.80;;;2.00;;
66739;SDS011;53653;52.188;8.602;2023-02-28T12:51:55;7.78;;;2.40;;
66739;SDS011;53653;52.188;8.602;2023-02-28T12:59:45;5.55;;;2.45;;
66739;SDS011;53653;52.188;8.602;2023-02-28T13:05:09;5.20;;;2.13;;
66739;SDS011;53653;52.188;8.602;2023-02-28T13:10:23;6.87;;;2.43;;
66739;SDS011;53653;52.188;8.602;2023-02-28T13:12:52;6.78;;;2.33;;
66739;SDS011;53653;52.188;8.602;2023-02-28T13:15:26;7.70;;;2.53;;
66739;SDS011;53653;52.188;8.602;2023-02-28T13:17:58;6.38;;;2.53;;
66739;SDS011;53653;52.188;8.602;2023-02-28T13:22:52;8.33;;;2.53;;
66739;SDS011;53653;52.188;8.602;2023-02-28T13:27:48;5.85;;;2.20;;
66739;SDS011;53653;52.188;8.602;2023-02-28T13:33:27;7.10;;;2.90;;
66739;SDS011;53653;52.188;8.602;2023-02-28T13:36:40;6.83;;;2.50;;
66739;SDS011;53653;52.188;8.602;2023-02-28T13:44:18;7.68;;;3.30;;
66739;SDS011;53653;52.188;8.602;2023-02-28T14:11:33;5.97;;;2.95;;
66739;SDS011;53653;52.188;8.602;2023-02-28T14:14:00;7.65;;;3.10;;
66739;SDS011;53653;52.188;8.602;2023-02-28T14:16:34;6.32;;;2.80;;
66739;SDS011;53653;52.188;8.602;2023-02-28T14:21:59;6.37;;;2.57;;
66739;SDS011;53653;52.188;8.602;2023-02-28T14:38:45;4.82;;;1.98;;
66739;SDS011;53653;52.188;8.602;2023-02-28T14:41:17;6.40;;;2.30;;
66739;SDS011;53653;52.188;8.602;2023-02-28T14:43:48;6.25;;;2.90;;
66739;SDS011;53653;52.188;8.602;2023-02-28T14:46:14;7.70;;;2.22;;
66739;SDS011;53653;52.188;8.602;2023-02-28T14:48:44;6.85;;;3.05;;
66739;SDS011;53653;52.188;8.602;2023-02-28T14:51:11;7.72;;;2.60;;
66739;SDS011;53653;52.188;8.602;2023-02-28T14:53:43;6.80;;;2.33;;
66739;SDS011;53653;52.188;8.602;2023-02-28T14:56:18;7.20;;;2.47;;
66739;SDS011;53653;52.188;8.602;2023-02-28T14:58:50;6.22;;;2.55;;
66739;SDS011;53653;52.188;8.602;2023-02-28T15:01:20;7.38;;;3.33;;
66739;SDS011;53653;52.188;8.602;2023-02-28T15:03:47;6.95;;;2.58;;
66739;SDS011;53653;52.188;8.602;2023-02-28T15:06:21;7.10;;;2.70;;
66739;SDS011;53653;52.188;8.602;2023-02-28T15:08:48;4.55;;;1.88;;
66739;SDS011;53653;52.188;8.602;2023-02-28T15:11:32;6.28;;;2.03;;
66739;SDS011;53653;52.188;8.602;2023-02-28T15:13:58;7.80;;;2.80;;
66739;SDS011;53653;52.188;8.602;2023-02-28T15:16:26;4.78;;;1.95;;
66739;SDS011;53653;52.188;8.602;2023-02-28T15:19:01;6.57;;;2.22;;
66739;SDS011;53653;52.188;8.602;2023-02-28T15:21:30;5.72;;;2.70;;
66739;SDS011;53653;52.188;8.602;2023-02-28T15:26:50;7.68;;;2.80;;
66739;SDS011;53653;52.188;8.602;2023-02-28T15:29:23;6.65;;;3.03;;
66739;SDS011;53653;52.188;8.602;2023-02-28T15:31:51;6.45;;;2.28;;
66739;SDS011;53653;52.188;8.602;2023-02-28T15:34:25;6.78;;;2.65;;
66739;SDS011;53653;52.188;8.602;2023-02-28T15:37:06;9.23;;;2.80;;
66739;SDS011;53653;52.188;8.602;2023-02-28T15:39:53;7.57;;;2.80;;
66739;SDS011;53653;52.188;8.602;2023-02-28T15:42:21;5.88;;;2.33;;
66739;SDS011;53653;52.188;8.602;2023-02-28T15:44:47;8.40;;;3.10;;
66739;SDS011;53653;52.188;8.602;2023-02-28T15:47:22;8.52;;;3.10;;
66739;SDS011;53653;52.188;8.602;2023-02-28T15:49:51;6.90;;;2.23;;
66739;SDS011;53653;52.188;8.602;2023-02-28T15:52:24;6.95;;;2.50;;
66739;SDS011;53653;52.188;8.602;2023-02-28T15:54:56;8.43;;;2.60;;
66739;SDS011;53653;52.188;8.602;2023-02-28T15:57:26;7.00;;;2.85;;
66739;SDS011;53653;52.188;8.602;2023-02-28T15:59:58;5.70;;;2.50;;
66739;SDS011;53653;52.188;8.602;2023-02-28T16:02:37;7.90;;;2.50;;
66739;SDS011;53653;52.188;8.602;2023-02-28T16:07:36;6.72;;;3.20;;
66739;SDS011;53653;52.188;8.602;2023-02-28T16:10:03;6.18;;;2.33;;
66739;SDS011;53653;52.188;8.602;2023-02-28T16:12:30;5.82;;;2.70;;
66739;SDS011;53653;52.188;8.602;2023-02-28T16:14:58;8.17;;;2.57;;
66739;SDS011;53653;52.188;8.602;2023-02-28T16:17:32;6.20;;;2.22;;
66739;SDS011;53653;52.188;8.602;2023-02-28T16:19:59;5.70;;;2.53;;
66739;SDS011;53653;52.188;8.602;2023-02-28T16:22:25;8.27;;;2.83;;
66739;SDS011;53653;52.188;8.602;2023-02-28T16:24:51;9.70;;;2.63;;
66739;SDS011;53653;52.188;8.602;2023-02-28T16:27:18;6.88;;;2.67;;
66739;SDS011;53653;52.188;8.602;2023-02-28T16:29:50;9.40;;;3.00;;
66739;SDS011;53653;52.188;8.602;2023-02-28T16:32:15;9.67;;;3.00;;
66739;SDS011;53653;52.188;8.602;2023-02-28T16:34:42;7.85;;;2.90;;
66739;SDS011;53653;52.188;8.602;2023-02-28T16:37:15;9.30;;;3.10;;
66739;SDS011;53653;52.188;8.602;2023-02-28T16:39:43;8.60;;;2.88;;
66739;SDS011;53653;52.188;8.602;2023-02-28T16:42:11;7.03;;;2.75;;
66739;SDS011;53653;52.188;8.602;2023-02-28T16:44:48;6.88;;;2.13;;
66739;SDS011;53653;52.188;8.602;2023-02-28T16:47:13;8.33;;;3.63;;
66739;SDS011;53653;52.188;8.602;2023-02-28T16:49:39;7.25;;;2.55;;
66739;SDS011;53653;52.188;8.602;2023-02-28T16:52:07;6.88;;;3.38;;
66739;SDS011;53653;52.188;8.602;2023-02-28T16:54:33;7.57;;;3.30;;
66739;SDS011;53653;52.188;8.602;2023-02-28T16:56:58;7.53;;;3.10;;
66739;SDS011;53653;52.188;8.602;2023-02-28T16:59:25;8.15;;;3.35;;
66739;SDS011;53653;52.188;8.602;2023-02-28T17:01:51;9.87;;;3.77;;
66739;SDS011;53653;52.188;8.602;2023-02-28T17:04:17;8.43;;;4.30;;
66739;SDS011;53653;52.188;8.602;2023-02-28T17:06:43;12.80;;;4.80;;
66739;SDS011;53653;52.188;8.602;2023-02-28T17:09:14;9.85;;;3.95;;
66739;SDS011;53653;52.188;8.602;2023-02-28T17:11:42;13.13;;;4.47;;
66739;SDS011;53653;52.188;8.602;2023-02-28T17:14:08;11.87;;;5.23;;
66739;SDS011;53653;52.188;8.602;2023-02-28T17:16:33;14.68;;;4.93;;
66739;SDS011;53653;52.188;8.602;2023-02-28T17:19:02;9.07;;;4.23;;
66739;SDS011;53653;52.188;8.602;2023-02-28T17:21:30;10.65;;;4.55;;